createdAt,value
2023-04-15T00:01:55.613Z,9.20
2023-04-15T00:04:22.730Z,8.88
2023-04-15T00:06:53.130Z,9.03
2023-04-15T00:09:21.135Z,9.13
2023-04-15T00:11:48.346Z,10.80
2023-04-15T00:14:16.748Z,8.90
2023-04-15T00:16:43.732Z,9.85
2023-04-15T00:19:12.310Z,9.57
2023-04-15T00:21:39.290Z,8.52
2023-04-15T00:24:07.887Z,9.57
2023-04-15T00:26:35.844Z,8.65
2023-04-15T00:29:03.900Z,9.00
2023-04-15T00:31:31.683Z,8.73
2023-04-15T00:33:59.709Z,10.32
2023-04-15T00:36:26.651Z,7.90
2023-04-15T00:38:54.027Z,9.67
2023-04-15T00:41:23.012Z,8.15
2023-04-15T00:43:50.528Z,10.50
2023-04-15T00:46:21.990Z,9.15
2023-04-15T00:48:55.132Z,7.95
2023-04-15T00:51:22.498Z,8.80
2023-04-15T00:53:49.531Z,9.73
2023-04-15T00:56:17.682Z,8.68
2023-04-15T00:58:44.693Z,9.32
2023-04-15T01:01:11.722Z,8.77
2023-04-15T01:03:38.930Z,9.07
2023-04-15T01:06:07.507Z,9.38
2023-04-15T01:08:35.512Z,9.23
2023-04-15T01:11:03.772Z,9.55
2023-04-15T01:13:34.241Z,8.50
2023-04-15T01:16:03.237Z,10.57
2023-04-15T01:18:31.398Z,9.10
2023-04-15T01:21:00.782Z,9.03
2023-04-15T01:23:28.232Z,9.88
2023-04-15T01:25:56.679Z,9.53
2023-04-15T01:28:23.723Z,9.05
2023-04-15T01:30:50.945Z,8.68
2023-04-15T01:33:18.317Z,8.73
2023-04-15T01:35:46.371Z,9.98
2023-04-15T01:38:13.621Z,10.48
2023-04-15T01:40:40.928Z,9.60
2023-04-15T01:43:08.209Z,9.70
2023-04-15T01:45:35.244Z,10.77
2023-04-15T01:48:04.386Z,10.52
2023-04-15T01:50:31.504Z,9.25
2023-04-15T01:52:59.605Z,10.68
2023-04-15T01:55:27.054Z,10.25
2023-04-15T01:57:53.985Z,10.35
2023-04-15T02:00:22.984Z,10.35
2023-04-15T02:02:49.987Z,10.18
2023-04-15T02:05:20.039Z,10.15
2023-04-15T02:07:47.375Z,9.57
2023-04-15T02:10:15.515Z,10.07
2023-04-15T02:12:43.484Z,10.37
2023-04-15T02:15:11.139Z,9.60
2023-04-15T02:17:38.264Z,10.75
2023-04-15T02:20:08.820Z,10.73
2023-04-15T02:22:36.029Z,11.13
2023-04-15T02:25:03.522Z,10.70
2023-04-15T02:27:30.893Z,9.98
2023-04-15T02:29:58.118Z,10.13
2023-04-15T02:32:29.123Z,14.00
2023-04-15T02:34:56.406Z,10.27
2023-04-15T02:37:24.670Z,10.60
2023-04-15T02:39:51.701Z,10.63
2023-04-15T02:42:21.617Z,10.60
2023-04-15T02:44:49.750Z,10.23
2023-04-15T02:47:16.688Z,10.50
2023-04-15T02:49:43.933Z,10.25
2023-04-15T02:52:11.358Z,11.05
2023-04-15T02:54:39.357Z,10.18
2023-04-15T02:57:06.844Z,10.55
2023-04-15T02:59:33.836Z,10.57
2023-04-15T03:02:01.202Z,10.80
2023-04-15T03:04:30.253Z,11.02
2023-04-15T03:06:57.457Z,11.10
2023-04-15T03:09:24.413Z,11.32
2023-04-15T03:11:55.513Z,11.40
2023-04-15T03:14:23.213Z,11.65
2023-04-15T03:16:51.836Z,11.73
2023-04-15T03:19:18.890Z,11.95
2023-04-15T03:21:45.914Z,11.40
2023-04-15T03:24:12.926Z,11.60
2023-04-15T03:26:41.178Z,11.63
2023-04-15T03:29:08.380Z,11.87
2023-04-15T03:31:40.524Z,11.90
2023-04-15T03:34:08.555Z,12.05
2023-04-15T03:36:36.938Z,11.93
2023-04-15T03:39:05.094Z,12.18
2023-04-15T03:41:35.367Z,12.15
2023-04-15T03:44:02.459Z,12.23
2023-04-15T03:46:29.441Z,12.23
2023-04-15T03:48:56.451Z,12.15
2023-04-15T03:51:23.395Z,11.90
2023-04-15T03:53:51.145Z,12.90
2023-04-15T03:56:18.098Z,12.37
2023-04-15T03:58:45.318Z,12.63
2023-04-15T04:01:12.269Z,13.15
2023-04-15T04:03:39.487Z,13.15
2023-04-15T04:06:06.675Z,13.30
2023-04-15T04:08:33.754Z,13.00
2023-04-15T04:11:00.862Z,13.15
2023-04-15T04:13:30.628Z,13.40
2023-04-15T04:15:57.615Z,13.70
2023-04-15T04:18:24.872Z,13.40
2023-04-15T04:20:52.072Z,13.93
2023-04-15T04:23:20.486Z,14.07
2023-04-15T04:25:48.397Z,14.20
2023-04-15T04:28:15.719Z,14.63
2023-04-15T04:30:42.760Z,13.85
2023-04-15T04:33:09.750Z,14.27
2023-04-15T04:35:37.730Z,15.10
2023-04-15T04:38:05.062Z,15.13
2023-04-15T04:40:32.118Z,15.15
2023-04-15T04:42:59.131Z,14.80
2023-04-15T04:45:27.168Z,15.00
2023-04-15T04:47:54.109Z,16.35
2023-04-15T04:50:21.101Z,15.60
2023-04-15T04:52:48.074Z,16.05
2023-04-15T04:55:15.100Z,16.33
2023-04-15T04:57:42.205Z,16.10
2023-04-15T05:00:11.174Z,17.35
2023-04-15T05:02:38.833Z,16.90
2023-04-15T05:05:07.941Z,16.67
2023-04-15T05:07:34.891Z,17.45
2023-04-15T05:10:01.882Z,18.48
2023-04-15T05:12:28.824Z,18.08
2023-04-15T05:14:57.084Z,18.23
2023-04-15T05:17:24.089Z,18.45
2023-04-15T05:19:51.244Z,18.10
2023-04-15T05:22:21.519Z,18.13
2023-04-15T05:24:48.748Z,18.23
2023-04-15T05:27:25.091Z,18.30
2023-04-15T05:29:53.100Z,19.02
2023-04-15T05:32:26.343Z,18.73
2023-04-15T05:34:53.415Z,18.58
2023-04-15T05:37:23.337Z,17.80
2023-04-15T05:39:50.317Z,17.40
2023-04-15T05:42:17.742Z,17.00
2023-04-15T05:44:44.765Z,16.90
2023-04-15T05:47:11.881Z,16.95
2023-04-15T05:49:39.874Z,16.40
2023-04-15T05:52:06.874Z,17.93
2023-04-15T05:54:33.903Z,17.02
2023-04-15T05:57:01.168Z,17.33
2023-04-15T05:59:28.516Z,16.85
2023-04-15T06:01:55.494Z,16.42
2023-04-15T06:04:24.245Z,16.50
2023-04-15T06:06:51.382Z,17.85
2023-04-15T06:09:18.465Z,16.83
2023-04-15T06:11:45.476Z,17.03
2023-04-15T06:14:12.861Z,17.02
2023-04-15T06:16:40.258Z,17.30
2023-04-15T06:19:07.273Z,17.48
2023-04-15T06:21:34.294Z,19.05
2023-04-15T06:24:03.872Z,19.00
2023-04-15T06:26:31.233Z,19.02
2023-04-15T06:28:58.348Z,19.00
2023-04-15T06:31:25.626Z,19.90
2023-04-15T06:33:53.630Z,19.58
2023-04-15T06:36:23.488Z,19.55
2023-04-15T06:38:50.518Z,19.40
2023-04-15T06:41:18.823Z,19.55
2023-04-15T06:43:45.886Z,20.27
2023-04-15T06:46:13.149Z,19.77
2023-04-15T06:48:41.422Z,20.00
2023-04-15T06:51:08.948Z,19.95
2023-04-15T06:53:40.865Z,19.42
2023-04-15T06:56:10.623Z,19.83
2023-04-15T06:58:37.682Z,18.50
2023-04-15T07:01:08.960Z,18.57
2023-04-15T07:03:36.051Z,18.52
2023-04-15T07:06:09.076Z,16.83
2023-04-15T07:08:36.108Z,15.35
2023-04-15T07:11:04.371Z,15.48
2023-04-15T07:13:32.462Z,15.07
2023-04-15T07:15:59.623Z,14.60
2023-04-15T07:18:27.895Z,13.63
2023-04-15T07:20:55.229Z,13.50
2023-04-15T07:23:36.786Z,12.93
2023-04-15T07:26:05.059Z,12.95
2023-04-15T07:28:32.397Z,12.38
2023-04-15T07:31:00.756Z,12.95
2023-04-15T07:33:30.245Z,12.67
2023-04-15T07:35:57.433Z,12.87
2023-04-15T07:38:27.144Z,14.43
2023-04-15T07:40:54.273Z,12.68
2023-04-15T07:43:22.789Z,12.38
2023-04-15T07:45:52.050Z,11.93
2023-04-15T07:48:19.199Z,11.90
2023-04-15T07:50:49.435Z,11.85
2023-04-15T07:53:16.410Z,11.33
2023-04-15T07:55:44.784Z,10.80
2023-04-15T07:58:13.748Z,10.65
2023-04-15T08:00:44.214Z,10.55
2023-04-15T08:03:16.686Z,10.48
2023-04-15T08:05:46.063Z,11.25
2023-04-15T08:08:21.376Z,10.73
2023-04-15T08:10:52.843Z,10.73
2023-04-15T08:13:23.039Z,10.18
2023-04-15T08:16:14.734Z,10.77
2023-04-15T08:18:41.846Z,9.63
2023-04-15T08:21:10.720Z,10.13
2023-04-15T08:23:39.110Z,9.50
2023-04-15T08:26:06.275Z,9.70
2023-04-15T08:28:34.956Z,9.40
2023-04-15T08:31:02.906Z,9.50
2023-04-15T08:33:31.116Z,10.20
2023-04-15T08:38:39.688Z,10.07
2023-04-15T08:41:18.846Z,10.27
2023-04-15T08:43:57.034Z,10.32
2023-04-15T08:46:24.269Z,10.63
2023-04-15T08:48:57.474Z,9.82
2023-04-15T08:51:25.302Z,9.98
2023-04-15T08:53:54.364Z,10.48
2023-04-15T08:56:24.814Z,10.05
2023-04-15T08:58:55.189Z,10.63
2023-04-15T09:01:23.150Z,9.70
2023-04-15T09:03:54.730Z,9.20
2023-04-15T09:06:23.130Z,9.23
2023-04-15T09:08:50.676Z,7.95
2023-04-15T09:11:19.970Z,8.30
2023-04-15T09:13:47.243Z,7.60
2023-04-15T09:16:14.463Z,7.43
2023-04-15T09:18:41.821Z,7.25
2023-04-15T09:21:14.160Z,7.40
2023-04-15T09:23:54.196Z,6.77
2023-04-15T09:26:30.833Z,7.57
2023-04-15T09:29:09.457Z,6.85
2023-04-15T09:31:37.260Z,6.68
2023-04-15T09:34:04.489Z,6.30
2023-04-15T09:36:57.940Z,6.05
2023-04-15T09:39:27.512Z,7.47
2023-04-15T09:42:06.949Z,6.10
2023-04-15T09:44:34.195Z,6.10
2023-04-15T09:47:02.982Z,5.60
2023-04-15T09:49:30.176Z,5.82
2023-04-15T09:52:05.752Z,5.65
2023-04-15T09:54:35.861Z,5.15
2023-04-15T09:57:10.642Z,4.95
2023-04-15T09:59:39.902Z,4.88
2023-04-15T10:02:09.765Z,4.97
2023-04-15T10:04:40.755Z,4.90
2023-04-15T10:07:09.586Z,5.03
2023-04-15T10:09:37.260Z,5.25
2023-04-15T10:12:12.099Z,5.77
2023-04-15T10:14:45.163Z,5.28
2023-04-15T10:17:13.107Z,5.23
2023-04-15T10:19:41.710Z,5.13
2023-04-15T10:22:12.243Z,5.10
2023-04-15T10:24:41.572Z,5.00
2023-04-15T10:27:09.082Z,4.72
2023-04-15T10:29:37.669Z,4.57
2023-04-15T10:32:11.625Z,4.78
2023-04-15T10:34:38.776Z,4.50
2023-04-15T10:37:06.087Z,4.50
2023-04-15T10:39:33.146Z,4.47
2023-04-15T10:42:15.521Z,3.85
2023-04-15T10:44:52.580Z,4.65
2023-04-15T10:47:21.992Z,3.57
2023-04-15T10:49:51.626Z,3.90
2023-04-15T10:52:24.464Z,4.32
2023-04-15T10:55:07.661Z,3.85
2023-04-15T10:57:36.344Z,4.60
2023-04-15T11:00:14.717Z,5.18
2023-04-15T11:02:53.805Z,3.75
2023-04-15T11:05:21.831Z,4.57
2023-04-15T11:07:55.052Z,6.07
2023-04-15T11:10:31.354Z,4.20
2023-04-15T11:13:06.292Z,2.97
2023-04-15T11:15:37.913Z,3.83
2023-04-15T11:18:17.106Z,5.18
2023-04-15T11:20:53.723Z,3.05
2023-04-15T11:23:31.658Z,2.97
2023-04-15T11:26:01.013Z,3.15
2023-04-15T11:28:29.956Z,4.57
2023-04-15T11:30:57.856Z,5.43
2023-04-15T11:33:25.921Z,3.42
2023-04-15T11:35:55.200Z,3.33
2023-04-15T11:38:22.609Z,4.30
2023-04-15T11:40:50.634Z,3.08
2023-04-15T11:43:23.010Z,2.85
2023-04-15T11:45:57.923Z,3.83
2023-04-15T11:48:27.768Z,3.67
2023-04-15T11:50:59.511Z,3.13
2023-04-15T11:53:44.404Z,2.50
2023-04-15T11:56:32.882Z,3.05
2023-04-15T11:59:00.165Z,3.00
2023-04-15T12:01:39.722Z,4.65
2023-04-15T12:04:17.321Z,2.65
2023-04-15T12:06:44.859Z,2.45
2023-04-15T12:09:17.208Z,2.97
2023-04-15T12:11:51.809Z,2.17
2023-04-15T12:14:24.770Z,1.98
2023-04-15T12:16:54.592Z,2.63
2023-04-15T12:19:27.671Z,2.25
2023-04-15T12:22:02.510Z,2.28
2023-04-15T12:24:31.894Z,1.65
2023-04-15T12:27:04.139Z,2.17
2023-04-15T12:29:32.064Z,2.30
2023-04-15T12:32:05.221Z,2.90
2023-04-15T12:34:34.148Z,1.52
2023-04-15T12:37:03.689Z,2.40
2023-04-15T12:39:32.715Z,2.75
2023-04-15T12:42:00.512Z,1.67
2023-04-15T12:44:28.580Z,1.30
2023-04-15T12:46:55.957Z,1.63
2023-04-15T12:49:24.336Z,2.00
2023-04-15T12:51:57.437Z,2.10
2023-04-15T12:54:24.431Z,2.05
2023-04-15T12:56:52.768Z,1.92
2023-04-15T12:59:20.296Z,1.20
2023-04-15T13:01:48.820Z,1.52
2023-04-15T13:04:17.285Z,1.50
2023-04-15T13:06:44.384Z,1.48
2023-04-15T13:09:14.027Z,1.63
2023-04-15T13:11:41.415Z,2.53
2023-04-15T13:14:09.648Z,2.25
2023-04-15T13:16:36.920Z,2.40
2023-04-15T13:19:04.167Z,2.70
2023-04-15T13:21:35.164Z,2.20
2023-04-15T13:24:04.835Z,2.20
2023-04-15T13:26:32.236Z,3.65
2023-04-15T13:29:00.029Z,2.47
2023-04-15T13:31:27.312Z,2.67
2023-04-15T13:33:57.640Z,3.67
2023-04-15T13:36:26.397Z,2.35
2023-04-15T13:38:53.848Z,3.83
2023-04-15T13:41:22.852Z,3.70
2023-04-15T13:43:49.882Z,4.30
2023-04-15T13:46:17.227Z,4.38
2023-04-15T13:48:44.314Z,4.28
2023-04-15T13:51:12.826Z,4.82
2023-04-15T13:53:40.056Z,4.20
2023-04-15T13:56:08.609Z,7.07
2023-04-15T13:58:37.650Z,4.72
2023-04-15T14:01:06.945Z,4.03
2023-04-15T14:03:38.016Z,5.35
2023-04-15T14:06:06.305Z,4.35
2023-04-15T14:08:33.618Z,4.53
2023-04-15T14:11:00.863Z,9.20
2023-04-15T14:13:27.929Z,4.75
2023-04-15T14:15:54.901Z,4.47
2023-04-15T14:18:22.426Z,5.93
2023-04-15T14:20:49.544Z,4.97
2023-04-15T14:23:16.636Z,5.50
2023-04-15T14:25:46.064Z,4.28
2023-04-15T14:28:14.783Z,3.70
2023-04-15T14:30:42.124Z,4.93
2023-04-15T14:33:09.173Z,4.85
2023-04-15T14:35:36.539Z,5.93
2023-04-15T14:38:06.641Z,5.47
2023-04-15T14:40:33.789Z,6.57
2023-04-15T14:43:00.753Z,7.23
2023-04-15T14:45:27.801Z,7.53
2023-04-15T14:47:54.946Z,6.18
2023-04-15T14:50:23.210Z,8.52
2023-04-15T14:52:50.214Z,7.72
2023-04-15T14:55:17.247Z,6.50
2023-04-15T14:57:45.188Z,5.97
2023-04-15T15:00:15.832Z,6.75
2023-04-15T15:02:44.059Z,5.00
2023-04-15T15:05:12.472Z,5.38
2023-04-15T15:07:40.885Z,7.60
2023-04-15T15:10:08.243Z,8.05
2023-04-15T15:12:37.697Z,8.40
2023-04-15T15:15:25.153Z,6.40
2023-04-15T15:17:56.010Z,7.40
2023-04-15T15:20:25.741Z,7.05
2023-04-15T15:22:52.789Z,9.18
2023-04-15T15:25:21.053Z,7.80
2023-04-15T15:27:48.940Z,6.10
2023-04-15T15:30:15.975Z,7.90
2023-04-15T15:32:49.180Z,6.38
2023-04-15T15:35:16.960Z,6.82
2023-04-15T15:37:45.364Z,4.95
2023-04-15T15:40:19.262Z,8.80
2023-04-15T15:42:47.539Z,5.90
2023-04-15T15:45:14.576Z,7.50
2023-04-15T15:47:44.703Z,7.88
2023-04-15T15:50:13.784Z,5.63
2023-04-15T15:52:40.963Z,7.15
2023-04-15T15:55:09.557Z,8.18
2023-04-15T15:57:37.777Z,6.95
2023-04-15T16:00:13.804Z,9.93
2023-04-15T16:05:12.775Z,9.10
2023-04-15T16:07:39.921Z,9.38
2023-04-15T16:10:07.595Z,10.02
2023-04-15T16:12:35.891Z,10.52
2023-04-15T16:15:04.376Z,8.63
2023-04-15T16:17:32.567Z,10.05
2023-04-15T16:20:02.024Z,10.90
2023-04-15T16:22:30.396Z,11.00
2023-04-15T16:24:58.810Z,13.73
2023-04-15T16:27:26.336Z,17.77
2023-04-15T16:29:54.317Z,17.80
2023-04-15T16:32:21.537Z,21.88
2023-04-15T16:34:49.406Z,22.45
2023-04-15T16:37:16.843Z,23.45
2023-04-15T16:39:48.546Z,21.42
2023-04-15T16:42:16.412Z,18.50
2023-04-15T16:44:43.529Z,15.57
2023-04-15T16:47:13.793Z,15.50
2023-04-15T16:49:40.736Z,14.37
2023-04-15T16:52:07.867Z,18.30
2023-04-15T16:54:40.614Z,11.13
2023-04-15T16:57:08.703Z,12.10
2023-04-15T16:59:36.532Z,10.40
2023-04-15T17:02:03.954Z,8.95
2023-04-15T17:04:32.748Z,12.48
2023-04-15T17:07:02.549Z,9.02
2023-04-15T17:09:29.808Z,9.55
2023-04-15T17:11:58.955Z,9.50
2023-04-15T17:14:29.009Z,8.43
2023-04-15T17:17:05.173Z,9.65
2023-04-15T17:19:35.133Z,10.27
2023-04-15T17:22:05.317Z,9.00
2023-04-15T17:24:32.622Z,9.38
2023-04-15T17:27:00.327Z,6.43
2023-04-15T17:29:28.785Z,8.80
2023-04-15T17:31:56.332Z,9.13
2023-04-15T17:34:23.375Z,8.70
2023-04-15T17:36:54.058Z,8.18
2023-04-15T17:39:26.813Z,10.23
2023-04-15T17:41:57.879Z,8.93
2023-04-15T17:44:25.456Z,7.35
2023-04-15T17:46:54.336Z,9.20
2023-04-15T17:49:22.192Z,7.72
2023-04-15T17:51:49.445Z,10.20
2023-04-15T17:54:17.821Z,8.30
2023-04-15T17:56:45.932Z,10.30
2023-04-15T17:59:13.434Z,8.60
2023-04-15T18:01:43.342Z,9.35
2023-04-15T18:04:14.033Z,10.13
2023-04-15T18:06:41.267Z,10.15
2023-04-15T18:09:09.728Z,10.10
2023-04-15T18:11:37.423Z,9.18
2023-04-15T18:14:06.167Z,9.50
2023-04-15T18:16:33.420Z,9.60
2023-04-15T18:19:01.399Z,11.33
2023-04-15T18:21:29.706Z,10.55
2023-04-15T18:23:59.380Z,10.70
2023-04-15T18:26:27.853Z,11.65
2023-04-15T18:28:56.902Z,11.27
2023-04-15T18:31:24.794Z,12.60
2023-04-15T18:33:53.180Z,11.18
2023-04-15T18:36:20.302Z,12.60
2023-04-15T18:38:47.853Z,13.52
2023-04-15T18:41:15.171Z,12.90
2023-04-15T18:43:42.289Z,10.85
2023-04-15T18:46:12.542Z,13.70
2023-04-15T18:48:40.127Z,11.02
2023-04-15T18:51:11.017Z,13.35
2023-04-15T18:53:39.105Z,12.18
2023-04-15T18:56:07.075Z,11.40
2023-04-15T18:59:08.799Z,10.85
2023-04-15T19:01:26.576Z,12.18
2023-04-15T19:03:53.894Z,10.75
2023-04-15T19:06:22.493Z,13.45
2023-04-15T19:08:50.091Z,12.23
2023-04-15T19:11:18.474Z,9.93
2023-04-15T19:13:45.942Z,11.07
2023-04-15T19:16:12.940Z,8.85
2023-04-15T19:18:41.204Z,11.70
2023-04-15T19:21:10.502Z,10.80
2023-04-15T19:23:37.623Z,11.13
2023-04-15T19:26:04.698Z,9.57
2023-04-15T19:28:31.613Z,9.23
2023-04-15T19:30:58.605Z,11.77
2023-04-15T19:33:31.349Z,9.88
2023-04-15T19:36:04.380Z,8.65
2023-04-15T19:38:32.981Z,10.60
2023-04-15T19:41:00.019Z,11.52
2023-04-15T19:43:27.770Z,11.23
2023-04-15T19:45:55.132Z,12.07
2023-04-15T19:48:24.883Z,11.77
2023-04-15T19:50:51.943Z,11.32
2023-04-15T19:53:18.988Z,12.45
2023-04-15T19:55:48.519Z,16.33
2023-04-15T19:58:16.235Z,17.67
2023-04-15T20:00:46.056Z,16.17
2023-04-15T20:03:14.181Z,17.30
2023-04-15T20:05:41.910Z,11.93
2023-04-15T20:08:09.270Z,15.52
2023-04-15T20:10:37.288Z,14.05
2023-04-15T20:13:04.642Z,15.70
2023-04-15T20:15:31.640Z,13.65
2023-04-15T20:17:58.721Z,16.92
2023-04-15T20:20:26.441Z,15.68
2023-04-15T20:22:53.512Z,17.65
2023-04-15T20:25:20.505Z,15.18
2023-04-15T20:27:47.734Z,18.77
2023-04-15T20:30:15.766Z,18.10
2023-04-15T20:32:44.655Z,16.35
2023-04-15T20:35:11.842Z,16.85
2023-04-15T20:37:40.505Z,16.02
2023-04-15T20:40:10.076Z,20.37
2023-04-15T20:42:37.139Z,17.73
2023-04-15T20:45:04.495Z,20.83
2023-04-15T20:47:31.587Z,18.63
2023-04-15T20:49:58.562Z,18.92
2023-04-15T20:52:26.052Z,15.45
2023-04-15T20:54:54.924Z,17.02
2023-04-15T20:57:27.541Z,17.40
2023-04-15T20:59:57.839Z,22.92
2023-04-15T21:02:25.348Z,21.35
2023-04-15T21:04:52.880Z,17.98
2023-04-15T21:07:21.055Z,20.17
2023-04-15T21:09:49.524Z,23.30
2023-04-15T21:12:16.579Z,21.17
2023-04-15T21:14:44.164Z,21.50
2023-04-15T21:17:12.946Z,23.08
2023-04-15T21:19:40.607Z,24.15
2023-04-15T21:22:08.319Z,23.00
2023-04-15T21:24:36.388Z,22.63
2023-04-15T21:27:03.657Z,26.42
2023-04-15T21:29:33.107Z,23.73
2023-04-15T21:32:00.411Z,24.27
2023-04-15T21:34:28.018Z,27.52
2023-04-15T21:36:55.555Z,29.08
2023-04-15T21:39:23.339Z,24.73
2023-04-15T21:41:51.307Z,28.73
2023-04-15T21:44:18.675Z,27.10
2023-04-15T21:46:46.244Z,25.75
2023-04-15T21:49:14.073Z,29.08
2023-04-15T21:51:42.147Z,30.98
2023-04-15T21:54:09.436Z,27.80
2023-04-15T21:56:37.918Z,32.07
2023-04-15T21:59:05.141Z,30.15
2023-04-15T22:01:32.419Z,30.38
2023-04-15T22:04:00.446Z,34.55
2023-04-15T22:06:27.824Z,30.77
2023-04-15T22:09:10.652Z,29.93
2023-04-15T22:11:46.753Z,32.55
2023-04-15T22:14:17.171Z,32.63
2023-04-15T22:16:45.329Z,35.38
2023-04-15T22:19:12.445Z,32.10
2023-04-15T22:21:39.447Z,32.70
2023-04-15T22:24:33.584Z,33.88
2023-04-15T22:26:53.835Z,35.22
2023-04-15T22:29:21.595Z,31.63
2023-04-15T22:31:49.091Z,33.92
2023-04-15T22:34:21.579Z,34.75
2023-04-15T22:36:49.374Z,33.60
2023-04-15T22:39:17.058Z,32.13
2023-04-15T22:41:44.828Z,36.25
2023-04-15T22:44:12.079Z,40.83
2023-04-15T22:46:39.527Z,36.17
2023-04-15T22:49:09.313Z,35.35
2023-04-15T22:51:36.724Z,35.28
2023-04-15T22:54:04.041Z,34.97
2023-04-15T22:56:32.822Z,37.67
2023-04-15T22:59:00.030Z,40.58
2023-04-15T23:01:27.260Z,40.67
2023-04-15T23:03:56.691Z,38.00
2023-04-15T23:06:31.856Z,39.00
2023-04-15T23:09:00.172Z,43.23
2023-04-15T23:11:28.485Z,38.80
2023-04-15T23:13:55.847Z,38.67
2023-04-15T23:16:23.115Z,38.22
2023-04-15T23:21:34.064Z,40.83
2023-04-15T23:24:01.393Z,39.55
2023-04-15T23:26:28.653Z,43.60
2023-04-15T23:28:56.334Z,40.58
2023-04-15T23:31:23.454Z,38.65
2023-04-15T23:33:51.457Z,38.87
2023-04-15T23:36:19.405Z,42.03
2023-04-15T23:38:46.742Z,44.63
2023-04-15T23:41:14.095Z,39.88
2023-04-15T23:43:44.159Z,43.35
2023-04-15T23:46:15.055Z,42.55
2023-04-15T23:48:42.576Z,42.63
2023-04-15T23:51:10.119Z,41.53
2023-04-15T23:53:59.085Z,45.72
2023-04-15T23:56:48.522Z,46.47
2023-04-15T23:59:17.162Z,47.95
